createdAt,value
2023-01-20T00:00:05.514Z,1.27
2023-01-20T00:01:12.117Z,0.90
2023-01-20T00:02:19.719Z,0.50
2023-01-20T00:03:23.035Z,1.50
2023-01-20T00:04:34.781Z,1.48
2023-01-20T00:05:38.250Z,0.52
2023-01-20T00:06:42.568Z,0.75
2023-01-20T00:07:44.894Z,2.25
2023-01-20T00:08:53.336Z,0.75
2023-01-20T00:09:56.553Z,1.10
2023-01-20T00:11:00.143Z,1.27
2023-01-20T00:12:04.351Z,0.95
2023-01-20T00:13:08.193Z,0.82
2023-01-20T00:14:13.092Z,7.93
2023-01-20T00:15:17.051Z,1.05
2023-01-20T00:16:28.093Z,0.90
2023-01-20T00:17:32.407Z,0.77
2023-01-20T00:18:44.333Z,1.30
2023-01-20T00:19:48.570Z,1.77
2023-01-20T00:20:51.865Z,1.38
2023-01-20T00:21:55.993Z,1.00
2023-01-20T00:22:58.722Z,1.33
2023-01-20T00:24:04.284Z,1.05
2023-01-20T00:25:07.331Z,2.13
2023-01-20T00:26:13.431Z,1.20
2023-01-20T00:27:20.266Z,2.35
2023-01-20T00:28:24.935Z,1.45
2023-01-20T00:29:27.434Z,2.03
2023-01-20T00:30:31.663Z,16.00
2023-01-20T00:31:34.796Z,6.47
2023-01-20T00:32:39.502Z,9.50
2023-01-20T00:33:42.648Z,1.60
2023-01-20T00:34:47.142Z,4.20
2023-01-20T00:35:49.626Z,2.80
2023-01-20T00:36:53.516Z,1.38
2023-01-20T00:37:56.191Z,3.00
2023-01-20T00:38:59.952Z,5.70
2023-01-20T00:40:04.792Z,4.32
2023-01-20T00:41:09.470Z,2.22
2023-01-20T00:42:11.715Z,3.72
2023-01-20T00:43:15.374Z,1.60
2023-01-20T00:44:18.067Z,1.83
2023-01-20T00:45:21.721Z,2.88
2023-01-20T00:46:24.919Z,2.75
2023-01-20T00:47:28.520Z,1.08
2023-01-20T00:48:31.054Z,0.77
2023-01-20T00:49:34.469Z,0.88
2023-01-20T00:50:36.920Z,1.88
2023-01-20T00:51:40.433Z,3.30
2023-01-20T00:52:42.983Z,1.02
2023-01-20T00:53:46.476Z,3.07
2023-01-20T00:54:48.901Z,2.20
2023-01-20T00:55:53.860Z,2.30
2023-01-20T00:56:56.331Z,2.88
2023-01-20T00:57:59.770Z,2.40
2023-01-20T00:59:02.643Z,2.13
2023-01-20T01:00:07.479Z,1.33
2023-01-20T01:01:10.315Z,2.10
2023-01-20T01:02:13.708Z,1.10
2023-01-20T01:03:16.238Z,0.98
2023-01-20T01:04:19.832Z,1.30
2023-01-20T01:05:22.442Z,1.00
2023-01-20T01:06:25.646Z,1.67
2023-01-20T01:07:28.033Z,2.45
2023-01-20T01:08:31.980Z,1.65
2023-01-20T01:09:34.819Z,1.95
2023-01-20T01:10:38.499Z,1.75
2023-01-20T01:11:43.768Z,2.20
2023-01-20T01:12:45.945Z,1.40
2023-01-20T01:13:49.430Z,2.20
2023-01-20T01:14:52.010Z,1.63
2023-01-20T01:15:55.265Z,1.90
2023-01-20T01:16:58.360Z,2.47
2023-01-20T01:18:02.199Z,2.97
2023-01-20T01:19:04.628Z,2.95
2023-01-20T01:20:08.658Z,1.95
2023-01-20T01:21:12.644Z,1.60
2023-01-20T01:22:16.063Z,2.67
2023-01-20T01:23:18.924Z,1.15
2023-01-20T01:24:22.451Z,3.53
2023-01-20T01:25:24.969Z,1.30
2023-01-20T01:26:28.261Z,1.08
2023-01-20T01:27:32.426Z,1.40
2023-01-20T01:28:35.797Z,1.10
2023-01-20T01:29:38.416Z,1.08
2023-01-20T01:30:41.814Z,1.00
2023-01-20T01:31:44.448Z,0.90
2023-01-20T01:32:48.562Z,1.30
2023-01-20T01:33:50.891Z,3.10
2023-01-20T01:34:54.294Z,1.20
2023-01-20T01:35:57.154Z,1.40
2023-01-20T01:37:01.421Z,1.50
2023-01-20T01:38:04.047Z,2.10
2023-01-20T01:39:07.353Z,1.13
2023-01-20T01:40:10.943Z,1.50
2023-01-20T01:41:19.732Z,0.82
2023-01-20T01:42:25.624Z,0.90
2023-01-20T01:43:32.325Z,0.82
2023-01-20T01:44:37.359Z,0.82
2023-01-20T01:45:40.771Z,1.08
2023-01-20T01:46:44.976Z,0.80
2023-01-20T01:47:51.008Z,1.60
2023-01-20T01:48:55.137Z,0.50
2023-01-20T01:49:57.983Z,0.98
2023-01-20T01:51:06.590Z,0.85
2023-01-20T01:52:10.935Z,1.10
2023-01-20T01:53:16.473Z,0.77
2023-01-20T01:54:23.698Z,2.53
2023-01-20T01:55:31.086Z,0.60
2023-01-20T01:56:34.369Z,1.02
2023-01-20T01:57:37.866Z,0.90
2023-01-20T01:58:46.803Z,2.20
2023-01-20T01:59:50.250Z,0.70
2023-01-20T02:00:53.402Z,2.95
2023-01-20T02:01:57.595Z,0.95
2023-01-20T02:03:00.667Z,0.93
2023-01-20T02:04:06.942Z,0.88
2023-01-20T02:05:10.340Z,1.77
2023-01-20T02:06:15.807Z,0.80
2023-01-20T02:07:21.115Z,0.65
2023-01-20T02:08:24.626Z,1.50
2023-01-20T02:09:27.789Z,1.58
2023-01-20T02:10:31.629Z,1.42
2023-01-20T02:11:39.158Z,1.40
2023-01-20T02:12:44.286Z,2.47
2023-01-20T02:13:48.821Z,1.23
2023-01-20T02:14:54.375Z,0.77
2023-01-20T02:16:04.044Z,1.02
2023-01-20T02:17:16.040Z,3.20
2023-01-20T02:18:35.658Z,1.08
2023-01-20T02:20:19.370Z,1.00
2023-01-20T02:21:56.214Z,0.80
2023-01-20T02:23:07.463Z,1.17
2023-01-20T02:24:58.445Z,1.08
2023-01-20T02:26:19.381Z,0.90
2023-01-20T02:27:35.955Z,1.40
2023-01-20T02:29:01.834Z,1.65
2023-01-20T02:30:46.822Z,0.52
2023-01-20T02:32:21.873Z,1.00
2023-01-20T02:33:31.079Z,1.67
2023-01-20T02:34:40.144Z,0.83
2023-01-20T02:35:47.191Z,0.93
2023-01-20T02:36:55.523Z,1.30
2023-01-20T02:38:12.834Z,0.75
2023-01-20T02:39:27.263Z,1.17
2023-01-20T02:40:36.042Z,1.25
2023-01-20T02:41:46.704Z,1.58
2023-01-20T02:42:58.842Z,1.23
2023-01-20T02:44:08.933Z,1.08
2023-01-20T02:45:21.240Z,0.90
2023-01-20T02:46:32.161Z,2.10
2023-01-20T02:47:43.212Z,2.92
2023-01-20T02:49:00.793Z,1.13
2023-01-20T02:50:12.806Z,1.25
2023-01-20T02:51:21.664Z,0.80
2023-01-20T02:52:27.073Z,1.50
2023-01-20T02:53:38.042Z,2.45
2023-01-20T02:54:45.097Z,1.75
2023-01-20T02:55:50.771Z,1.52
2023-01-20T02:56:54.776Z,2.70
2023-01-20T02:58:03.658Z,0.73
2023-01-20T02:59:11.312Z,2.28
2023-01-20T03:00:19.026Z,0.95
2023-01-20T03:01:26.431Z,1.20
2023-01-20T03:02:32.414Z,0.50
2023-01-20T03:03:38.852Z,0.68
2023-01-20T03:04:49.265Z,1.15
2023-01-20T03:05:56.303Z,0.70
2023-01-20T03:07:02.907Z,1.52
2023-01-20T03:08:09.933Z,1.05
2023-01-20T03:09:19.384Z,1.23
2023-01-20T03:10:25.119Z,0.45
2023-01-20T03:11:33.786Z,0.50
2023-01-20T03:12:45.900Z,0.85
2023-01-20T03:13:53.989Z,0.50
2023-01-20T03:14:56.773Z,0.60
2023-01-20T03:16:03.594Z,0.70
2023-01-20T03:17:06.094Z,0.40
2023-01-20T03:18:09.434Z,0.85
2023-01-20T03:19:13.149Z,0.75
2023-01-20T03:20:17.335Z,0.70
2023-01-20T03:21:19.893Z,1.45
2023-01-20T03:22:24.282Z,0.77
2023-01-20T03:23:28.525Z,0.77
2023-01-20T03:24:34.662Z,0.82
2023-01-20T03:25:39.192Z,0.43
2023-01-20T03:26:42.565Z,1.20
2023-01-20T03:27:44.923Z,0.73
2023-01-20T03:28:49.736Z,0.40
2023-01-20T03:29:52.191Z,1.23
2023-01-20T03:30:58.966Z,0.53
2023-01-20T03:32:04.056Z,1.20
2023-01-20T03:33:07.718Z,1.58
2023-01-20T03:34:16.399Z,0.95
2023-01-20T03:35:20.303Z,1.15
2023-01-20T03:36:26.153Z,0.63
2023-01-20T03:37:29.660Z,0.93
2023-01-20T03:38:31.926Z,0.50
2023-01-20T03:39:39.807Z,0.70
2023-01-20T03:40:50.731Z,0.60
2023-01-20T03:42:03.979Z,0.80
2023-01-20T03:43:16.718Z,0.38
2023-01-20T03:44:25.936Z,0.57
2023-01-20T03:45:39.475Z,0.40
2023-01-20T03:46:48.355Z,2.70
2023-01-20T03:47:59.228Z,0.65
2023-01-20T03:49:10.967Z,0.30
2023-01-20T03:50:26.240Z,0.38
2023-01-20T03:51:37.166Z,0.35
2023-01-20T03:52:46.609Z,0.45
2023-01-20T03:53:57.757Z,0.70
2023-01-20T03:55:04.509Z,0.90
2023-01-20T03:56:18.634Z,0.57
2023-01-20T03:57:26.729Z,0.33
2023-01-20T03:58:33.429Z,1.02
2023-01-20T03:59:40.494Z,1.58
2023-01-20T04:00:46.509Z,0.22
2023-01-20T04:01:49.895Z,1.25
2023-01-20T04:02:55.834Z,0.73
2023-01-20T04:03:59.863Z,0.40
2023-01-20T04:05:04.867Z,0.60
2023-01-20T04:06:11.978Z,0.85
2023-01-20T04:07:20.678Z,0.80
2023-01-20T04:08:26.860Z,0.50
2023-01-20T04:09:34.006Z,0.98
2023-01-20T04:10:39.591Z,0.70
2023-01-20T04:11:43.027Z,0.65
2023-01-20T04:12:45.737Z,0.75
2023-01-20T04:13:50.966Z,0.65
2023-01-20T04:14:53.315Z,0.60
2023-01-20T04:15:59.803Z,0.47
2023-01-20T04:17:04.349Z,0.50
2023-01-20T04:18:19.610Z,0.85
2023-01-20T04:19:21.842Z,0.60
2023-01-20T04:20:27.843Z,0.90
2023-01-20T04:21:37.119Z,0.52
2023-01-20T04:22:50.454Z,0.73
2023-01-20T04:23:59.128Z,0.60
2023-01-20T04:25:09.588Z,0.57
2023-01-20T04:26:12.469Z,1.42
2023-01-20T04:27:16.170Z,2.00
2023-01-20T04:28:18.382Z,0.88
2023-01-20T04:29:21.635Z,1.83
2023-01-20T04:30:23.985Z,0.75
2023-01-20T04:31:30.876Z,1.10
2023-01-20T04:32:33.998Z,1.92
2023-01-20T04:33:38.563Z,0.98
2023-01-20T04:34:42.071Z,0.60
2023-01-20T04:35:44.657Z,0.77
2023-01-20T04:36:49.463Z,0.90
2023-01-20T04:37:51.987Z,0.90
2023-01-20T04:38:55.787Z,1.27
2023-01-20T04:39:58.218Z,0.88
2023-01-20T04:41:03.643Z,1.00
2023-01-20T04:42:06.214Z,0.82
2023-01-20T04:43:10.177Z,1.20
2023-01-20T04:44:12.466Z,1.02
2023-01-20T04:45:17.764Z,0.70
2023-01-20T04:46:20.595Z,1.60
2023-01-20T04:47:24.119Z,0.93
2023-01-20T04:48:26.526Z,0.73
2023-01-20T04:49:30.269Z,1.10
2023-01-20T04:50:32.497Z,0.70
2023-01-20T04:51:35.936Z,0.40
2023-01-20T04:52:39.988Z,2.15
2023-01-20T04:53:43.754Z,0.90
2023-01-20T04:54:46.489Z,1.10
2023-01-20T04:55:50.586Z,0.55
2023-01-20T04:56:53.064Z,0.70
2023-01-20T04:57:56.521Z,0.63
2023-01-20T04:58:58.785Z,0.77
2023-01-20T05:00:02.543Z,0.60
2023-01-20T05:01:05.521Z,1.40
2023-01-20T05:02:08.814Z,0.55
2023-01-20T05:03:11.555Z,2.05
2023-01-20T05:04:14.771Z,0.70
2023-01-20T05:05:17.515Z,0.98
2023-01-20T05:06:20.904Z,1.02
2023-01-20T05:07:23.679Z,1.55
2023-01-20T05:08:28.477Z,1.25
2023-01-20T05:09:31.230Z,1.13
2023-01-20T05:10:34.894Z,1.00
2023-01-20T05:11:37.074Z,1.35
2023-01-20T05:12:41.411Z,1.58
2023-01-20T05:13:43.652Z,1.35
2023-01-20T05:14:47.112Z,0.80
2023-01-20T05:15:50.164Z,1.00
2023-01-20T05:16:53.811Z,1.02
2023-01-20T05:17:56.262Z,1.08
2023-01-20T05:18:59.523Z,1.13
2023-01-20T05:20:01.791Z,0.93
2023-01-20T05:21:07.648Z,0.40
2023-01-20T05:22:10.924Z,1.88
2023-01-20T05:23:14.400Z,0.73
2023-01-20T05:24:18.300Z,0.95
2023-01-20T05:25:22.193Z,0.70
2023-01-20T05:26:25.019Z,0.65
2023-01-20T05:27:28.332Z,1.05
2023-01-20T05:28:31.841Z,0.70
2023-01-20T05:29:34.305Z,0.60
2023-01-20T05:30:38.111Z,0.70
2023-01-20T05:31:43.406Z,1.27
2023-01-20T05:32:47.345Z,0.70
2023-01-20T05:33:49.528Z,1.35
2023-01-20T05:34:52.823Z,1.02
2023-01-20T05:35:56.130Z,1.27
2023-01-20T05:36:59.446Z,0.73
2023-01-20T05:38:02.244Z,0.80
2023-01-20T05:39:05.776Z,0.77
2023-01-20T05:40:11.306Z,1.40
2023-01-20T05:41:15.717Z,0.70
2023-01-20T05:42:17.869Z,0.70
2023-01-20T05:43:21.019Z,0.60
2023-01-20T05:44:23.232Z,1.25
2023-01-20T05:45:26.527Z,1.58
2023-01-20T05:46:28.910Z,1.05
2023-01-20T05:47:32.576Z,1.55
2023-01-20T05:48:34.796Z,1.80
2023-01-20T05:49:37.930Z,4.00
2023-01-20T05:50:40.107Z,4.75
2023-01-20T05:51:43.588Z,4.47
2023-01-20T05:52:48.547Z,7.43
2023-01-20T05:53:52.811Z,4.20
2023-01-20T05:54:54.970Z,2.58
2023-01-20T05:56:03.755Z,7.57
2023-01-20T05:57:06.047Z,3.30
2023-01-20T05:58:09.606Z,11.65
2023-01-20T05:59:12.335Z,3.08
2023-01-20T06:00:18.772Z,2.58
2023-01-20T06:01:22.217Z,2.25
2023-01-20T06:02:24.764Z,2.03
2023-01-20T06:03:28.298Z,1.95
2023-01-20T06:04:30.649Z,1.85
2023-01-20T06:05:34.052Z,1.08
2023-01-20T06:06:37.984Z,2.05
2023-01-20T06:07:40.245Z,1.15
2023-01-20T06:08:44.155Z,1.52
2023-01-20T06:09:46.388Z,1.10
2023-01-20T06:10:50.654Z,2.25
2023-01-20T06:11:55.331Z,2.20
2023-01-20T06:12:57.954Z,1.43
2023-01-20T06:14:01.482Z,1.15
2023-01-20T06:15:04.827Z,2.55
2023-01-20T06:16:08.865Z,1.88
2023-01-20T06:17:11.309Z,1.27
2023-01-20T06:18:14.674Z,2.22
2023-01-20T06:19:18.198Z,2.55
2023-01-20T06:20:23.744Z,1.15
2023-01-20T06:21:27.259Z,1.75
2023-01-20T06:22:29.989Z,1.58
2023-01-20T06:23:33.237Z,0.90
2023-01-20T06:24:35.544Z,0.85
2023-01-20T06:25:39.060Z,3.22
2023-01-20T06:26:41.696Z,0.75
2023-01-20T06:27:46.386Z,0.95
2023-01-20T06:28:49.656Z,1.95
2023-01-20T06:29:51.866Z,0.52
2023-01-20T06:31:01.204Z,2.17
2023-01-20T06:32:03.556Z,1.50
2023-01-20T06:33:10.729Z,1.88
2023-01-20T06:34:14.902Z,2.73
2023-01-20T06:35:17.541Z,3.05
2023-01-20T06:36:20.807Z,2.67
2023-01-20T06:37:23.301Z,2.08
2023-01-20T06:38:29.655Z,0.88
2023-01-20T06:39:32.920Z,2.58
2023-01-20T06:40:35.171Z,1.55
2023-01-20T06:41:38.699Z,1.83
2023-01-20T06:42:42.185Z,2.03
2023-01-20T06:43:46.973Z,2.00
2023-01-20T06:44:49.269Z,2.57
2023-01-20T06:45:52.887Z,2.47
2023-01-20T06:46:57.472Z,1.10
2023-01-20T06:48:00.111Z,2.78
2023-01-20T06:49:03.511Z,3.90
2023-01-20T06:50:06.692Z,2.67
2023-01-20T06:51:12.773Z,2.67
2023-01-20T06:52:15.248Z,2.97
2023-01-20T06:53:18.719Z,2.47
2023-01-20T06:54:22.043Z,1.98
2023-01-20T06:55:24.638Z,2.20
2023-01-20T06:56:27.881Z,1.67
2023-01-20T06:57:30.122Z,2.95
2023-01-20T06:58:34.505Z,2.03
2023-01-20T06:59:39.253Z,3.47
2023-01-20T07:00:42.618Z,3.00
2023-01-20T07:01:45.256Z,4.72
2023-01-20T07:02:50.373Z,3.97
2023-01-20T07:03:53.219Z,4.72
2023-01-20T07:04:56.595Z,4.00
2023-01-20T07:06:02.283Z,6.77
2023-01-20T07:07:05.744Z,5.45
2023-01-20T07:08:08.154Z,4.78
2023-01-20T07:09:13.521Z,3.70
2023-01-20T07:10:16.617Z,2.75
2023-01-20T07:11:20.052Z,3.33
2023-01-20T07:12:22.568Z,4.60
2023-01-20T07:13:26.135Z,5.85
2023-01-20T07:14:28.867Z,4.45
2023-01-20T07:15:33.808Z,4.75
2023-01-20T07:16:37.223Z,5.57
2023-01-20T07:17:40.553Z,4.25
2023-01-20T07:18:43.352Z,3.33
2023-01-20T07:19:46.899Z,8.63
2023-01-20T07:20:54.123Z,10.63
2023-01-20T07:21:57.634Z,7.15
2023-01-20T07:23:00.586Z,6.30
2023-01-20T07:24:03.983Z,5.05
2023-01-20T07:25:06.927Z,6.15
2023-01-20T07:26:12.445Z,7.80
2023-01-20T07:27:15.880Z,7.20
2023-01-20T07:28:18.360Z,8.07
2023-01-20T07:29:21.787Z,7.15
2023-01-20T07:30:24.678Z,7.60
2023-01-20T07:31:31.448Z,4.15
2023-01-20T07:32:33.807Z,4.38
2023-01-20T07:33:37.396Z,3.95
2023-01-20T07:34:40.774Z,3.17
2023-01-20T07:35:42.944Z,3.22
2023-01-20T07:36:46.409Z,2.22
2023-01-20T07:37:48.790Z,3.20
2023-01-20T07:38:53.455Z,6.75
2023-01-20T07:39:55.705Z,11.13
2023-01-20T07:40:59.681Z,11.32
2023-01-20T07:42:02.231Z,6.82
2023-01-20T07:43:05.668Z,6.82
2023-01-20T07:44:10.852Z,4.40
2023-01-20T07:45:13.780Z,4.95
2023-01-20T07:46:18.182Z,7.15
2023-01-20T07:47:21.823Z,5.35
2023-01-20T07:48:25.814Z,5.37
2023-01-20T07:49:29.383Z,8.75
2023-01-20T07:50:31.697Z,8.82
2023-01-20T07:51:35.073Z,12.90
2023-01-20T07:52:37.238Z,9.75
2023-01-20T07:53:43.633Z,8.18
2023-01-20T07:54:45.853Z,9.98
2023-01-20T07:55:49.278Z,11.48
2023-01-20T07:56:51.536Z,8.82
2023-01-20T07:57:54.840Z,10.25
2023-01-20T07:58:58.919Z,10.23
2023-01-20T08:00:01.376Z,8.18
2023-01-20T08:01:09.784Z,11.50
2023-01-20T08:02:13.712Z,16.02
2023-01-20T08:03:18.312Z,11.55
2023-01-20T08:04:21.605Z,10.93
2023-01-20T08:05:23.818Z,9.68
2023-01-20T08:06:27.841Z,7.15
2023-01-20T08:07:31.829Z,7.00
2023-01-20T08:08:34.949Z,6.82
2023-01-20T08:09:40.634Z,5.27
2023-01-20T08:10:42.823Z,4.70
2023-01-20T08:11:46.086Z,5.22
2023-01-20T08:12:48.252Z,9.23
2023-01-20T08:13:51.814Z,4.43
2023-01-20T08:14:55.146Z,3.88
2023-01-20T08:16:02.022Z,4.65
2023-01-20T08:17:05.605Z,4.75
2023-01-20T08:18:07.920Z,9.55
2023-01-20T08:19:12.577Z,12.85
2023-01-20T08:20:17.650Z,12.63
2023-01-20T08:21:24.397Z,15.23
2023-01-20T08:22:28.076Z,10.73
2023-01-20T08:23:30.406Z,9.30
2023-01-20T08:24:33.902Z,5.60
2023-01-20T08:25:37.338Z,4.50
2023-01-20T08:26:41.223Z,6.63
2023-01-20T08:27:43.679Z,6.60
2023-01-20T08:28:47.161Z,7.20
2023-01-20T08:29:49.874Z,6.38
2023-01-20T08:30:53.652Z,6.40
2023-01-20T08:31:57.147Z,6.35
2023-01-20T08:32:59.676Z,6.50
2023-01-20T08:34:03.770Z,7.07
2023-01-20T08:35:09.192Z,9.23
2023-01-20T08:36:13.968Z,9.65
2023-01-20T08:37:17.614Z,6.82
2023-01-20T08:38:20.817Z,9.10
2023-01-20T08:39:24.574Z,8.85
2023-01-20T08:40:26.833Z,9.40
2023-01-20T08:41:33.030Z,17.27
2023-01-20T08:42:36.589Z,10.45
2023-01-20T08:43:38.914Z,9.35
2023-01-20T08:44:42.225Z,8.50
2023-01-20T08:45:44.816Z,3.30
2023-01-20T08:46:52.657Z,2.90
2023-01-20T08:47:55.986Z,4.45
2023-01-20T08:48:58.589Z,4.45
2023-01-20T08:50:02.149Z,4.20
2023-01-20T08:51:09.650Z,4.65
2023-01-20T08:52:13.061Z,3.53
2023-01-20T08:53:15.459Z,3.42
2023-01-20T08:54:19.530Z,3.50
2023-01-20T08:55:22.188Z,4.50
2023-01-20T08:56:25.584Z,3.83
2023-01-20T08:57:29.425Z,5.72
2023-01-20T08:58:31.796Z,4.63
2023-01-20T08:59:35.114Z,4.47
2023-01-20T09:00:37.932Z,6.78
2023-01-20T09:01:42.684Z,4.55
2023-01-20T09:02:46.145Z,3.97
2023-01-20T09:04:03.749Z,3.97
2023-01-20T09:05:09.986Z,4.13
2023-01-20T09:06:14.402Z,5.07
2023-01-20T09:07:18.672Z,6.00
2023-01-20T09:08:22.441Z,6.25
2023-01-20T09:09:25.975Z,5.25
2023-01-20T09:10:28.737Z,4.72
2023-01-20T09:11:31.999Z,4.65
2023-01-20T09:12:35.271Z,3.90
2023-01-20T09:13:38.129Z,3.17
2023-01-20T09:14:41.459Z,3.50
2023-01-20T09:15:43.997Z,7.60
2023-01-20T09:16:47.512Z,7.93
2023-01-20T09:17:49.993Z,8.23
2023-01-20T09:18:53.438Z,11.07
2023-01-20T09:19:55.915Z,7.35
2023-01-20T09:20:59.660Z,3.78
2023-01-20T09:22:04.904Z,5.20
2023-01-20T09:23:08.170Z,2.22
2023-01-20T09:24:11.814Z,3.30
2023-01-20T09:25:14.287Z,2.42
2023-01-20T09:26:34.396Z,3.30
2023-01-20T09:27:38.648Z,2.25
2023-01-20T09:28:44.926Z,1.75
2023-01-20T09:29:48.772Z,1.75
2023-01-20T09:30:51.049Z,1.02
2023-01-20T09:31:58.296Z,2.78
2023-01-20T09:33:01.766Z,1.83
2023-01-20T09:34:05.357Z,2.17
2023-01-20T09:35:08.518Z,1.97
2023-01-20T09:36:12.566Z,1.92
2023-01-20T09:37:35.071Z,4.00
2023-01-20T09:38:57.065Z,2.65
2023-01-20T09:40:18.155Z,2.35
2023-01-20T09:41:46.660Z,3.42
2023-01-20T09:43:26.734Z,2.45
2023-01-20T09:44:43.728Z,2.88
2023-01-20T09:45:53.070Z,1.88
2023-01-20T09:47:23.303Z,2.47
2023-01-20T09:48:54.311Z,2.17
2023-01-20T09:50:29.995Z,2.92
2023-01-20T09:52:00.540Z,3.78
2023-01-20T09:53:15.652Z,4.30
2023-01-20T09:54:25.551Z,3.83
2023-01-20T09:55:33.980Z,3.38
2023-01-20T09:56:42.956Z,2.55
2023-01-20T09:57:51.245Z,6.80
2023-01-20T09:58:59.460Z,4.60
2023-01-20T10:00:07.799Z,5.13
2023-01-20T10:01:18.905Z,6.40
2023-01-20T10:02:24.587Z,9.45
2023-01-20T10:03:37.370Z,10.50
2023-01-20T10:04:45.082Z,3.58
2023-01-20T10:05:51.082Z,6.50
2023-01-20T10:06:58.048Z,2.20
2023-01-20T10:08:05.124Z,2.55
2023-01-20T10:09:17.365Z,2.35
2023-01-20T10:10:24.924Z,2.92
2023-01-20T10:11:33.145Z,2.70
2023-01-20T10:12:41.287Z,1.90
2023-01-20T10:13:51.550Z,7.63
2023-01-20T10:14:59.605Z,4.03
2023-01-20T10:16:09.853Z,3.53
2023-01-20T10:17:19.332Z,3.55
2023-01-20T10:18:31.410Z,4.72
2023-01-20T10:19:42.609Z,3.70
2023-01-20T10:20:51.560Z,4.60
2023-01-20T10:22:03.242Z,4.45
2023-01-20T10:23:11.657Z,2.03
2023-01-20T10:24:20.890Z,4.73
2023-01-20T10:25:29.374Z,3.35
2023-01-20T10:26:38.828Z,2.25
2023-01-20T10:27:51.736Z,4.15
2023-01-20T10:29:00.336Z,3.65
2023-01-20T10:30:10.208Z,4.60
2023-01-20T10:31:18.443Z,3.53
2023-01-20T10:32:32.420Z,3.47
2023-01-20T10:33:38.896Z,3.63
2023-01-20T10:34:47.472Z,2.80
2023-01-20T10:35:53.074Z,5.67
2023-01-20T10:37:05.742Z,2.75
2023-01-20T10:38:10.798Z,4.30
2023-01-20T10:39:28.951Z,4.90
2023-01-20T10:40:40.259Z,2.60
2023-01-20T10:41:47.665Z,4.38
2023-01-20T10:42:54.597Z,6.35
2023-01-20T10:43:59.196Z,3.72
2023-01-20T10:45:02.746Z,3.50
2023-01-20T10:46:25.520Z,4.28
2023-01-20T10:47:39.710Z,4.13
2023-01-20T10:48:56.522Z,9.68
2023-01-20T10:50:19.257Z,4.32
2023-01-20T10:51:31.940Z,4.10
2023-01-20T10:53:08.601Z,7.47
2023-01-20T10:54:23.666Z,5.90
2023-01-20T10:55:39.539Z,8.95
2023-01-20T10:56:46.543Z,5.45
2023-01-20T10:57:53.884Z,5.03
2023-01-20T10:59:00.241Z,2.78
2023-01-20T11:00:08.265Z,2.87
2023-01-20T11:01:16.582Z,4.88
2023-01-20T11:02:26.061Z,7.55
2023-01-20T11:03:34.456Z,5.70
2023-01-20T11:04:39.378Z,5.40
2023-01-20T11:05:43.190Z,3.55
2023-01-20T11:06:50.068Z,4.88
2023-01-20T11:07:54.946Z,4.25
2023-01-20T11:08:59.299Z,3.80
2023-01-20T11:10:15.954Z,4.78
2023-01-20T11:11:21.690Z,4.00
2023-01-20T11:12:30.082Z,2.85
2023-01-20T11:13:33.631Z,4.30
2023-01-20T11:14:37.602Z,4.35
2023-01-20T11:15:45.966Z,5.68
2023-01-20T11:16:55.607Z,4.35
2023-01-20T11:18:23.239Z,4.22
2023-01-20T11:19:26.630Z,5.72
2023-01-20T11:20:29.479Z,2.97
2023-01-20T11:21:36.704Z,5.25
2023-01-20T11:22:40.147Z,2.90
2023-01-20T11:23:48.904Z,3.55
2023-01-20T11:24:56.597Z,3.05
2023-01-20T11:26:09.964Z,4.63
2023-01-20T11:27:16.975Z,2.85
2023-01-20T11:28:20.517Z,3.28
2023-01-20T11:29:30.263Z,3.55
2023-01-20T11:30:35.286Z,3.70
2023-01-20T11:31:42.394Z,3.78
2023-01-20T11:32:46.429Z,4.45
2023-01-20T11:33:57.715Z,3.03
2023-01-20T11:35:02.689Z,2.95
2023-01-20T11:36:08.062Z,4.80
2023-01-20T11:37:21.136Z,3.85
2023-01-20T11:38:26.384Z,3.30
2023-01-20T11:39:33.132Z,5.97
2023-01-20T11:40:36.069Z,2.85
2023-01-20T11:41:41.055Z,3.85
2023-01-20T11:42:46.578Z,3.50
2023-01-20T11:43:51.221Z,3.78
2023-01-20T11:44:55.137Z,4.40
2023-01-20T11:46:22.679Z,2.65
2023-01-20T11:47:28.373Z,3.08
2023-01-20T11:48:31.862Z,3.75
2023-01-20T11:49:34.144Z,3.60
2023-01-20T11:50:39.395Z,2.20
2023-01-20T11:51:49.993Z,2.45
2023-01-20T11:52:52.586Z,4.65
2023-01-20T11:54:09.271Z,3.65
2023-01-20T11:55:17.277Z,3.03
2023-01-20T11:56:24.868Z,3.50
2023-01-20T11:57:29.417Z,1.60
2023-01-20T11:58:34.842Z,3.20
2023-01-20T11:59:47.606Z,1.48
2023-01-20T12:00:53.883Z,1.40
2023-01-20T12:02:02.811Z,1.42
2023-01-20T12:03:32.385Z,2.70
2023-01-20T12:04:52.996Z,4.00
2023-01-20T12:06:01.253Z,2.35
2023-01-20T12:07:09.422Z,3.00
2023-01-20T12:08:20.690Z,6.10
2023-01-20T12:09:29.797Z,5.22
2023-01-20T12:10:36.011Z,4.85
2023-01-20T12:11:51.844Z,3.10
2023-01-20T12:13:01.390Z,2.40
2023-01-20T12:14:23.524Z,2.90
2023-01-20T12:15:30.757Z,1.73
2023-01-20T12:16:35.046Z,2.65
2023-01-20T12:17:55.237Z,2.33
2023-01-20T12:19:03.045Z,3.05
2023-01-20T12:20:18.810Z,3.57
2023-01-20T12:21:25.750Z,1.48
2023-01-20T12:22:35.817Z,3.95
2023-01-20T12:23:46.771Z,5.95
2023-01-20T12:25:10.646Z,2.40
2023-01-20T12:26:16.732Z,2.08
2023-01-20T12:27:25.049Z,2.58
2023-01-20T12:28:38.471Z,1.95
2023-01-20T12:29:45.862Z,2.47
2023-01-20T12:30:54.976Z,3.00
2023-01-20T12:32:01.013Z,5.13
2023-01-20T12:33:03.649Z,4.05
2023-01-20T12:34:12.751Z,4.68
2023-01-20T12:35:16.236Z,5.40
2023-01-20T12:36:31.555Z,5.50
2023-01-20T12:37:45.778Z,1.25
2023-01-20T12:39:02.604Z,4.20
2023-01-20T12:40:27.724Z,2.72
2023-01-20T12:41:56.445Z,1.25
2023-01-20T12:43:28.842Z,2.65
2023-01-20T12:44:39.639Z,1.83
2023-01-20T12:45:57.169Z,3.25
2023-01-20T12:47:08.805Z,3.10
2023-01-20T12:48:26.628Z,2.45
2023-01-20T12:49:54.886Z,4.32
2023-01-20T12:51:13.099Z,5.97
2023-01-20T12:52:33.587Z,3.00
2023-01-20T12:53:59.344Z,2.08
2023-01-20T12:55:44.257Z,2.42
2023-01-20T12:56:58.863Z,1.67
2023-01-20T12:58:15.627Z,1.40
2023-01-20T12:59:36.892Z,1.90
2023-01-20T13:01:14.193Z,3.10
2023-01-20T13:02:44.349Z,5.68
2023-01-20T13:04:29.385Z,4.82
2023-01-20T13:06:13.222Z,4.35
2023-01-20T13:07:44.062Z,3.13
2023-01-20T13:08:58.454Z,4.70
2023-01-20T13:10:22.255Z,9.73
2023-01-20T13:11:40.628Z,1.60
2023-01-20T13:12:52.208Z,2.73
2023-01-20T13:14:09.068Z,1.50
2023-01-20T13:15:20.364Z,5.57
2023-01-20T13:16:34.443Z,2.25
2023-01-20T13:17:44.096Z,2.67
2023-01-20T13:19:03.989Z,1.40
2023-01-20T13:20:24.284Z,2.38
2023-01-20T13:21:27.521Z,2.05
2023-01-20T13:22:31.352Z,2.38
2023-01-20T13:23:37.047Z,1.05
2023-01-20T13:24:43.101Z,4.00
2023-01-20T13:25:48.621Z,1.60
2023-01-20T13:26:53.093Z,2.20
2023-01-20T13:27:57.532Z,2.55
2023-01-20T13:29:01.440Z,2.63
2023-01-20T13:30:06.020Z,3.22
2023-01-20T13:31:32.185Z,2.40
2023-01-20T13:32:38.026Z,4.97
2023-01-20T13:33:43.097Z,1.48
2023-01-20T13:34:45.673Z,2.50
2023-01-20T13:35:51.442Z,2.37
2023-01-20T13:37:30.389Z,3.88
2023-01-20T13:38:36.115Z,3.58
2023-01-20T13:39:42.931Z,1.27
2023-01-20T13:40:55.087Z,0.88
2023-01-20T13:41:58.412Z,4.57
2023-01-20T13:43:02.447Z,2.78
2023-01-20T13:44:27.532Z,3.13
2023-01-20T13:45:31.791Z,5.85
2023-01-20T13:46:49.315Z,1.20
2023-01-20T13:48:22.322Z,1.47
2023-01-20T13:49:48.999Z,1.05
2023-01-20T13:50:53.930Z,1.10
2023-01-20T13:51:56.640Z,4.40
2023-01-20T13:53:34.149Z,4.25
2023-01-20T13:54:44.851Z,1.48
2023-01-20T13:55:53.803Z,3.67
2023-01-20T13:57:35.124Z,2.78
2023-01-20T13:58:38.661Z,1.83
2023-01-20T13:59:41.538Z,0.93
2023-01-20T14:00:45.890Z,5.73
2023-01-20T14:01:51.005Z,1.23
2023-01-20T14:02:55.172Z,1.88
2023-01-20T14:04:05.878Z,1.70
2023-01-20T14:05:37.069Z,2.97
2023-01-20T14:06:46.504Z,2.75
2023-01-20T14:07:49.321Z,1.30
2023-01-20T14:08:53.208Z,2.90
2023-01-20T14:09:58.820Z,0.95
2023-01-20T14:11:09.540Z,3.53
2023-01-20T14:12:11.880Z,3.37
2023-01-20T14:13:21.503Z,1.67
2023-01-20T14:14:27.813Z,1.83
2023-01-20T14:15:41.558Z,2.22
2023-01-20T14:16:45.544Z,1.65
2023-01-20T14:17:54.970Z,0.77
2023-01-20T14:19:01.551Z,2.35
2023-01-20T14:20:21.775Z,2.58
2023-01-20T14:21:27.574Z,3.63
2023-01-20T14:22:32.065Z,2.72
2023-01-20T14:23:38.636Z,1.63
2023-01-20T14:24:44.977Z,2.53
2023-01-20T14:25:58.284Z,3.08
2023-01-20T14:27:11.209Z,3.30
2023-01-20T14:28:19.768Z,2.55
2023-01-20T14:29:24.839Z,0.80
2023-01-20T14:30:28.576Z,2.83
2023-01-20T14:31:36.663Z,3.75
2023-01-20T14:32:39.828Z,4.75
2023-01-20T14:33:59.688Z,2.60
2023-01-20T14:35:04.874Z,1.80
2023-01-20T14:36:08.651Z,3.70
2023-01-20T14:37:26.332Z,2.28
2023-01-20T14:38:30.221Z,4.05
2023-01-20T14:39:34.166Z,5.68
2023-01-20T14:40:36.712Z,3.20
2023-01-20T14:41:48.581Z,3.72
2023-01-20T14:43:00.444Z,3.25
2023-01-20T14:44:03.626Z,3.67
2023-01-20T14:45:19.702Z,3.65
2023-01-20T14:46:23.680Z,3.67
2023-01-20T14:47:28.663Z,4.47
2023-01-20T14:48:34.845Z,1.70
2023-01-20T14:49:41.989Z,2.00
2023-01-20T14:50:49.004Z,2.15
2023-01-20T14:51:53.880Z,2.55
2023-01-20T14:52:57.295Z,2.83
2023-01-20T14:54:28.842Z,2.45